Time;durP1;ratioP1;P1;durP2;ratioP2;P2;SDS_P1;SDS_P2;PMS_P1;PMS_P2;Temp;Humidity;BMP_temperature;BMP_pressure;BME280_temperature;BME280_humidity;BME280_pressure;Samples;Min_cycle;Max_cycle;Signal;HPM_P1;HPM_P2
2021/10/11 00:02:26;;;;;;;9.97;8.33;;;5.60;99.90;;;;;;5071395;28;20208;-67
2021/10/11 00:04:53;;;;;;;11.57;8.03;;;5.60;99.90;;;;;;5071375;28;20212;-67
2021/10/11 00:07:20;;;;;;;10.27;7.63;;;5.50;99.90;;;;;;5071098;28;20215;-67
2021/10/11 00:09:46;;;;;;;11.23;8.03;;;5.50;99.90;;;;;;5071160;28;20449;-68
2021/10/11 00:12:13;;;;;;;11.43;7.87;;;5.50;99.90;;;;;;5071568;28;20228;-67
2021/10/11 00:14:40;;;;;;;11.03;8.10;;;5.50;99.90;;;;;;5071226;28;20216;-67
2021/10/11 00:17:06;;;;;;;13.97;8.03;;;5.50;99.90;;;;;;5071276;28;20673;-67
2021/10/11 00:19:36;;;;;;;10.33;7.70;;;5.50;99.90;;;;;;5070731;28;20212;-67
2021/10/11 00:22:03;;;;;;;11.50;8.20;;;5.50;99.90;;;;;;5071190;28;20419;-67
2021/10/11 00:24:30;;;;;;;13.10;7.93;;;5.50;99.90;;;;;;5071419;28;20205;-67
2021/10/11 00:26:57;;;;;;;11.93;8.03;;;5.50;99.90;;;;;;5070926;28;20681;-67
2021/10/11 00:29:24;;;;;;;9.83;7.97;;;5.40;99.90;;;;;;5071395;28;20212;-68
2021/10/11 00:31:50;;;;;;;11.63;7.90;;;5.40;99.90;;;;;;5071415;28;20233;-67
2021/10/11 00:34:17;;;;;;;11.30;7.67;;;5.40;99.90;;;;;;5071226;28;20204;-68
2021/10/11 00:36:45;;;;;;;9.73;7.03;;;5.40;99.90;;;;;;5071680;28;20204;-68
2021/10/11 00:39:12;;;;;;;13.93;8.07;;;5.40;99.90;;;;;;5070848;28;20668;-68
2021/10/11 00:41:39;;;;;;;11.30;8.10;;;5.30;99.90;;;;;;5070792;28;20689;-68
2021/10/11 00:44:06;;;;;;;13.50;7.70;;;5.30;99.90;;;;;;5071176;28;20240;-68
2021/10/11 00:46:33;;;;;;;10.53;7.57;;;5.30;99.90;;;;;;5073064;28;20212;-68
2021/10/11 00:48:59;;;;;;;12.43;7.47;;;5.30;99.90;;;;;;5072344;28;20685;-68
2021/10/11 00:51:26;;;;;;;13.07;7.47;;;5.30;99.90;;;;;;5071776;28;20225;-68
2021/10/11 00:53:55;;;;;;;9.00;7.60;;;5.20;99.90;;;;;;5071837;28;20212;-68
2021/10/11 00:56:23;;;;;;;10.17;7.60;;;5.30;99.90;;;;;;5071385;28;20209;-68
2021/10/11 00:58:50;;;;;;;9.53;7.67;;;5.30;99.90;;;;;;5070892;28;20216;-69
2021/10/11 01:01:17;;;;;;;10.87;7.73;;;5.30;99.90;;;;;;5071151;28;20217;-69
2021/10/11 01:03:44;;;;;;;10.07;7.80;;;5.40;99.90;;;;;;5070505;28;20216;-68
2021/10/11 01:06:11;;;;;;;10.47;7.80;;;5.30;99.90;;;;;;5073622;28;20291;-69
2021/10/11 01:08:38;;;;;;;11.30;8.17;;;5.30;99.90;;;;;;5074413;28;20216;-69
2021/10/11 01:11:06;;;;;;;10.90;7.53;;;5.40;99.90;;;;;;5074350;28;20224;-69
2021/10/11 01:13:33;;;;;;;9.97;7.13;;;5.30;99.90;;;;;;5074152;28;20657;-69
2021/10/11 01:15:59;;;;;;;13.43;8.50;;;5.30;99.90;;;;;;5074647;28;20217;-69
2021/10/11 01:18:26;;;;;;;14.97;8.47;;;5.30;99.90;;;;;;5074965;28;20201;-68
2021/10/11 01:20:54;;;;;;;11.83;8.87;;;5.30;99.90;;;;;;5074900;28;20708;-69
2021/10/11 01:23:25;;;;;;;14.00;8.77;;;5.30;99.90;;;;;;5074738;28;20213;-68
2021/10/11 01:25:52;;;;;;;10.97;7.83;;;5.30;99.90;;;;;;5074338;28;20393;-69
2021/10/11 01:28:19;;;;;;;11.70;7.93;;;5.30;99.90;;;;;;5074071;28;20212;-69
2021/10/11 01:30:45;;;;;;;13.37;8.97;;;5.30;99.90;;;;;;5074057;28;20233;-68
2021/10/11 01:33:12;;;;;;;11.63;8.63;;;5.40;99.90;;;;;;5074083;28;20208;-69
2021/10/11 01:35:39;;;;;;;14.37;8.33;;;5.40;99.90;;;;;;5073784;28;20209;-69
2021/10/11 01:38:10;;;;;;;13.27;8.40;;;5.40;99.90;;;;;;5073906;28;20258;-70
2021/10/11 01:40:37;;;;;;;11.80;8.90;;;5.40;99.90;;;;;;5074110;28;20224;-69
2021/10/11 01:43:05;;;;;;;11.10;8.80;;;5.30;99.90;;;;;;5073718;28;20578;-68
2021/10/11 01:45:32;;;;;;;10.67;8.43;;;5.30;99.90;;;;;;5073744;28;20205;-68
2021/10/11 01:47:59;;;;;;;10.87;8.07;;;5.30;99.90;;;;;;5073515;28;20231;-69
2021/10/11 01:50:26;;;;;;;10.83;8.27;;;5.30;99.90;;;;;;5073705;28;20228;-68
2021/10/11 01:52:53;;;;;;;13.03;9.20;;;5.30;99.90;;;;;;5073973;28;20289;-68
2021/10/11 01:55:21;;;;;;;10.93;8.13;;;5.30;99.90;;;;;;5073498;28;20235;-68
2021/10/11 01:57:47;;;;;;;11.60;8.63;;;5.30;99.90;;;;;;5073732;28;20204;-68
2021/10/11 02:00:15;;;;;;;15.30;8.20;;;5.30;99.90;;;;;;5073979;28;20213;-68
2021/10/11 02:02:41;;;;;;;10.90;8.03;;;5.30;99.90;;;;;;5073586;28;20590;-68
2021/10/11 02:05:09;;;;;;;11.77;8.10;;;5.30;99.90;;;;;;5073807;28;20212;-68
2021/10/11 02:07:35;;;;;;;11.20;8.33;;;5.30;99.90;;;;;;5073400;28;20201;-68
2021/10/11 02:10:02;;;;;;;12.70;8.23;;;5.30;99.90;;;;;;5073206;28;20201;-68
2021/10/11 02:12:30;;;;;;;11.50;8.70;;;5.30;99.90;;;;;;5073011;28;20240;-68
2021/10/11 02:14:57;;;;;;;11.23;8.20;;;5.30;99.90;;;;;;5073001;28;20201;-69
2021/10/11 02:17:24;;;;;;;11.07;8.37;;;5.30;99.90;;;;;;5071924;28;20204;-68
2021/10/11 02:19:51;;;;;;;10.97;7.83;;;5.30;99.90;;;;;;5073404;28;20209;-68
2021/10/11 02:22:17;;;;;;;10.77;8.17;;;5.30;99.90;;;;;;5073387;28;20217;-68
2021/10/11 02:24:44;;;;;;;10.00;7.90;;;5.30;99.90;;;;;;5073532;28;20204;-68
2021/10/11 02:27:11;;;;;;;9.83;8.40;;;5.20;99.90;;;;;;5073076;28;20208;-67
2021/10/11 02:29:39;;;;;;;11.63;8.80;;;5.10;99.90;;;;;;5072623;28;20232;-69
2021/10/11 02:32:06;;;;;;;11.90;8.13;;;5.10;99.90;;;;;;5072691;28;20224;-68
2021/10/11 02:34:34;;;;;;;12.90;8.33;;;5.10;99.90;;;;;;5072574;28;20672;-67
2021/10/11 02:37:01;;;;;;;10.73;7.90;;;5.00;99.90;;;;;;5072638;28;20212;-69
2021/10/11 02:39:27;;;;;;;11.27;7.90;;;5.00;99.90;;;;;;5072583;28;20201;-69
2021/10/11 02:41:54;;;;;;;10.83;8.63;;;5.00;99.90;;;;;;5072875;28;20217;-67
2021/10/11 02:44:21;;;;;;;11.23;8.73;;;4.90;99.90;;;;;;5072447;28;20680;-69
2021/10/11 02:46:49;;;;;;;13.20;8.60;;;4.90;99.90;;;;;;5072583;28;20651;-68
2021/10/11 02:49:15;;;;;;;12.10;8.43;;;4.90;99.90;;;;;;5072410;28;20208;-68
2021/10/11 02:51:42;;;;;;;12.27;8.80;;;4.90;99.90;;;;;;5072388;28;20282;-68
2021/10/11 02:54:09;;;;;;;11.07;9.00;;;4.90;99.90;;;;;;5072206;28;20232;-68
2021/10/11 02:56:35;;;;;;;11.57;9.13;;;4.90;99.90;;;;;;5072263;28;20211;-68
2021/10/11 02:59:02;;;;;;;13.13;9.10;;;4.90;99.90;;;;;;5072188;28;20204;-68
2021/10/11 03:01:29;;;;;;;14.90;8.83;;;4.90;99.90;;;;;;5072229;28;20228;-68
2021/10/11 03:03:57;;;;;;;13.10;8.57;;;4.90;99.90;;;;;;5072114;28;20205;-68
2021/10/11 03:06:23;;;;;;;11.17;8.70;;;4.80;99.90;;;;;;5072076;28;20205;-68
2021/10/11 03:08:50;;;;;;;15.63;8.90;;;4.80;99.90;;;;;;5071691;28;20212;-68
2021/10/11 03:11:17;;;;;;;11.03;8.27;;;4.80;99.90;;;;;;5072059;28;20228;-68
2021/10/11 03:13:43;;;;;;;13.13;9.37;;;4.90;99.90;;;;;;5071920;28;20216;-68
2021/10/11 03:16:10;;;;;;;11.10;8.97;;;5.00;99.90;;;;;;5072196;28;20217;-68
2021/10/11 03:18:37;;;;;;;11.33;9.47;;;5.00;99.90;;;;;;5072045;28;20274;-68
2021/10/11 03:21:05;;;;;;;12.37;9.03;;;4.90;99.90;;;;;;5071880;28;20224;-67
2021/10/11 03:23:32;;;;;;;12.90;10.20;;;4.90;99.90;;;;;;5071491;28;20208;-68
2021/10/11 03:25:59;;;;;;;15.67;8.83;;;4.90;99.90;;;;;;5071690;28;20225;-68
2021/10/11 03:28:25;;;;;;;18.00;7.77;;;4.90;99.90;;;;;;5071571;28;20234;-68
2021/10/11 03:30:52;;;;;;;37.13;23.20;;;5.00;99.90;;;;;;5071541;28;20298;-67
2021/10/11 03:33:19;;;;;;;14.93;10.20;;;5.00;99.90;;;;;;5071893;28;20594;-67
2021/10/11 03:35:45;;;;;;;13.30;9.37;;;5.00;99.90;;;;;;5071520;28;20212;-68
2021/10/11 03:38:13;;;;;;;14.47;10.37;;;4.90;99.90;;;;;;5072008;28;20201;-68
2021/10/11 03:40:40;;;;;;;22.37;13.60;;;5.00;99.90;;;;;;5071588;28;20704;-68
2021/10/11 03:43:07;;;;;;;12.80;8.83;;;4.90;99.90;;;;;;5071990;28;20323;-67
2021/10/11 03:45:33;;;;;;;12.77;8.67;;;5.00;99.90;;;;;;5071546;28;20205;-68
2021/10/11 03:48:00;;;;;;;11.07;8.97;;;4.90;99.90;;;;;;5071698;28;20615;-68
2021/10/11 03:50:27;;;;;;;12.13;9.33;;;4.90;99.90;;;;;;5071963;28;20285;-67
2021/10/11 03:52:53;;;;;;;13.50;9.60;;;4.90;99.90;;;;;;5071751;28;20224;-67
2021/10/11 03:55:22;;;;;;;17.77;11.20;;;4.90;99.90;;;;;;5071575;28;20554;-68
2021/10/11 03:57:48;;;;;;;14.83;10.97;;;4.80;99.90;;;;;;5071364;28;20212;-67
2021/10/11 04:00:16;;;;;;;16.27;11.03;;;4.70;99.90;;;;;;5071622;28;20232;-67
2021/10/11 04:02:43;;;;;;;13.47;10.40;;;4.60;99.90;;;;;;5071467;28;20483;-67
2021/10/11 04:05:10;;;;;;;11.83;9.70;;;4.60;99.90;;;;;;5071111;28;20216;-67
2021/10/11 04:07:39;;;;;;;14.70;10.33;;;4.70;99.90;;;;;;5071186;28;20205;-67
2021/10/11 04:10:08;;;;;;;13.07;10.37;;;4.70;99.90;;;;;;5071582;28;20216;-67
2021/10/11 04:12:37;;;;;;;14.27;10.30;;;4.70;99.90;;;;;;5071583;28;20316;-67
2021/10/11 04:15:06;;;;;;;13.40;10.40;;;4.60;99.90;;;;;;5071610;28;20205;-67
2021/10/11 04:17:37;;;;;;;12.63;10.50;;;4.70;99.90;;;;;;5071688;28;20258;-67
2021/10/11 04:20:05;;;;;;;15.70;11.23;;;4.70;99.90;;;;;;5071224;28;20201;-67
2021/10/11 04:22:32;;;;;;;16.93;10.80;;;4.80;99.90;;;;;;5072125;28;20239;-67
2021/10/11 04:24:59;;;;;;;14.27;10.97;;;4.70;99.90;;;;;;5071942;28;20209;-67
2021/10/11 04:27:25;;;;;;;14.57;11.57;;;4.70;99.90;;;;;;5072718;28;20209;-68
2021/10/11 04:29:53;;;;;;;14.83;10.20;;;4.80;99.90;;;;;;5072058;28;20212;-67
2021/10/11 04:32:20;;;;;;;16.10;11.43;;;4.90;99.90;;;;;;5071804;28;20225;-66
2021/10/11 04:34:47;;;;;;;14.20;10.40;;;4.80;99.90;;;;;;5071891;28;20220;-67
2021/10/11 04:37:13;;;;;;;12.60;10.63;;;4.90;99.90;;;;;;5072564;28;20205;-68
2021/10/11 04:39:40;;;;;;;12.77;9.77;;;4.90;99.90;;;;;;5075112;28;20227;-67
2021/10/11 04:42:07;;;;;;;14.97;10.80;;;4.90;99.90;;;;;;5076831;28;20247;-68
2021/10/11 04:44:33;;;;;;;14.23;9.77;;;4.90;99.90;;;;;;5075212;28;20205;-67
2021/10/11 04:47:01;;;;;;;14.77;10.30;;;4.80;99.90;;;;;;5075972;28;20270;-67
2021/10/11 04:49:28;;;;;;;16.40;10.63;;;4.70;99.90;;;;;;5074956;28;20209;-67
2021/10/11 04:51:55;;;;;;;12.87;9.30;;;4.70;99.90;;;;;;5075053;28;20232;-67
2021/10/11 04:54:21;;;;;;;13.03;9.97;;;4.70;99.90;;;;;;5074817;28;20217;-67
2021/10/11 04:56:48;;;;;;;13.97;9.03;;;4.80;99.90;;;;;;5075636;28;20212;-68
2021/10/11 04:59:14;;;;;;;11.50;9.20;;;4.60;99.90;;;;;;5074814;28;20239;-67
2021/10/11 05:01:41;;;;;;;12.90;9.10;;;4.50;99.90;;;;;;5074621;28;20236;-68
2021/10/11 05:04:10;;;;;;;11.60;9.13;;;4.50;99.90;;;;;;5074815;28;20204;-69
2021/10/11 05:06:37;;;;;;;14.90;9.43;;;4.60;99.90;;;;;;5074473;28;20212;-68
2021/10/11 05:09:04;;;;;;;11.77;9.30;;;4.60;99.90;;;;;;5074351;28;20217;-67
2021/10/11 05:11:31;;;;;;;15.33;8.37;;;4.70;99.90;;;;;;5074463;28;20225;-68
2021/10/11 05:13:57;;;;;;;12.60;9.13;;;4.60;99.90;;;;;;5074117;28;20664;-67
2021/10/11 05:16:26;;;;;;;17.67;9.40;;;4.50;99.90;;;;;;5074291;28;20643;-68
2021/10/11 05:18:53;;;;;;;14.60;8.40;;;4.50;99.90;;;;;;5074421;28;20278;-67
2021/10/11 05:21:21;;;;;;;12.43;9.60;;;4.50;99.90;;;;;;5074169;28;20311;-67
2021/10/11 05:23:48;;;;;;;11.97;9.40;;;4.60;99.90;;;;;;5074205;28;20838;-68
2021/10/11 05:26:15;;;;;;;14.23;9.93;;;4.60;99.90;;;;;;5074724;28;20233;-68
2021/10/11 05:28:42;;;;;;;16.00;9.13;;;4.60;99.90;;;;;;5074575;28;20244;-67
2021/10/11 05:31:09;;;;;;;14.23;8.60;;;4.60;99.90;;;;;;5074795;28;20232;-67
2021/10/11 05:33:36;;;;;;;14.50;9.37;;;4.60;99.90;;;;;;5074605;28;20224;-68
2021/10/11 05:36:03;;;;;;;13.67;9.43;;;4.60;99.90;;;;;;5074684;28;20213;-67
2021/10/11 05:38:31;;;;;;;19.23;14.60;;;4.70;99.90;;;;;;5074837;28;20729;-68
2021/10/11 05:40:57;;;;;;;13.70;9.27;;;4.80;99.90;;;;;;5074270;28;20224;-67
2021/10/11 05:43:24;;;;;;;13.23;9.90;;;4.80;99.90;;;;;;5073911;28;20254;-67
2021/10/11 05:45:51;;;;;;;14.17;9.43;;;4.80;99.90;;;;;;5074091;28;20205;-68
2021/10/11 05:48:17;;;;;;;15.07;10.00;;;4.90;99.90;;;;;;5075232;28;20206;-67
2021/10/11 05:50:44;;;;;;;14.23;10.10;;;5.00;99.90;;;;;;5073870;28;20228;-67
2021/10/11 05:53:12;;;;;;;14.37;10.13;;;5.00;99.90;;;;;;5074438;28;20224;-67
2021/10/11 05:55:40;;;;;;;17.07;10.93;;;5.10;99.90;;;;;;5076217;28;20212;-67
2021/10/11 05:58:06;;;;;;;14.57;10.73;;;5.20;99.90;;;;;;5073581;28;20209;-67
2021/10/11 06:00:33;;;;;;;19.00;11.27;;;5.30;99.90;;;;;;5073440;28;20221;-67
2021/10/11 06:03:00;;;;;;;16.27;11.67;;;5.40;99.90;;;;;;5073472;28;20208;-67
2021/10/11 06:05:27;;;;;;;18.10;11.63;;;5.40;99.90;;;;;;5073613;28;20205;-66
2021/10/11 06:07:53;;;;;;;17.03;11.23;;;5.50;99.90;;;;;;5074095;28;20224;-66
2021/10/11 06:10:20;;;;;;;15.83;10.93;;;5.50;99.90;;;;;;5073429;28;20229;-64
2021/10/11 06:12:48;;;;;;;15.90;10.73;;;5.60;99.90;;;;;;5073300;28;20228;-66
2021/10/11 06:15:15;;;;;;;14.73;10.47;;;5.70;99.90;;;;;;5073098;28;20205;-66
2021/10/11 06:17:42;;;;;;;15.13;10.93;;;5.80;99.90;;;;;;5072834;28;20681;-67
2021/10/11 06:20:10;;;;;;;16.70;10.70;;;5.90;99.90;;;;;;5073056;28;20209;-67
2021/10/11 06:22:37;;;;;;;15.90;11.40;;;6.10;99.90;;;;;;5073340;28;20197;-67
2021/10/11 06:25:04;;;;;;;18.00;10.60;;;6.30;99.90;;;;;;5073167;28;20201;-66
2021/10/11 06:27:31;;;;;;;15.77;10.90;;;6.80;99.90;;;;;;5073905;28;20212;-67
2021/10/11 06:30:00;;;;;;;14.50;10.37;;;7.70;99.90;;;;;;5073950;28;20220;-67
2021/10/11 06:32:26;;;;;;;17.63;11.07;;;8.50;99.90;;;;;;5074455;28;20213;-67
2021/10/11 06:34:53;;;;;;;13.70;10.07;;;9.40;99.90;;;;;;5073967;28;20205;-66
2021/10/11 06:37:20;;;;;;;16.20;9.73;;;10.00;99.90;;;;;;5074473;28;20200;-67
2021/10/11 06:39:47;;;;;;;12.57;9.27;;;10.20;99.90;;;;;;5074753;28;20209;-67
2021/10/11 06:42:14;;;;;;;13.80;10.13;;;10.30;99.90;;;;;;5074627;28;20228;-68
2021/10/11 06:44:41;;;;;;;15.07;9.90;;;10.50;99.90;;;;;;5074360;28;20205;-67
2021/10/11 06:47:09;;;;;;;16.57;9.77;;;10.70;99.90;;;;;;5073726;28;20204;-67
2021/10/11 06:49:36;;;;;;;13.77;9.47;;;10.80;99.90;;;;;;5076235;28;20708;-68
2021/10/11 06:52:03;;;;;;;14.80;10.27;;;10.90;99.90;;;;;;5074982;28;20225;-67
2021/10/11 06:54:30;;;;;;;13.67;9.67;;;11.10;99.90;;;;;;5075288;28;20220;-67
2021/10/11 06:56:57;;;;;;;14.23;9.37;;;11.20;99.90;;;;;;5073969;28;20239;-67
2021/10/11 06:59:23;;;;;;;12.43;9.37;;;11.40;99.90;;;;;;5073675;28;20228;-67
2021/10/11 07:01:50;;;;;;;17.80;9.80;;;11.80;99.90;;;;;;5073018;28;20225;-67
2021/10/11 07:04:19;;;;;;;13.67;9.80;;;12.40;99.90;;;;;;5072353;28;20207;-67
2021/10/11 07:06:46;;;;;;;12.67;8.27;;;12.80;99.90;;;;;;5072381;28;20641;-66
2021/10/11 07:09:12;;;;;;;13.93;8.73;;;13.40;99.90;;;;;;5072503;28;20216;-67
2021/10/11 07:11:39;;;;;;;12.03;8.93;;;14.00;99.90;;;;;;5073641;28;20286;-68
2021/10/11 07:14:06;;;;;;;10.70;9.37;;;14.40;99.90;;;;;;5071971;28;20232;-68
2021/10/11 07:16:33;;;;;;;12.83;9.07;;;14.70;99.90;;;;;;5072129;28;20231;-69
2021/10/11 07:18:59;;;;;;;11.87;9.10;;;14.70;99.90;;;;;;5072122;28;20274;-69
2021/10/11 07:21:27;;;;;;;12.20;9.97;;;14.40;99.90;;;;;;5072088;28;20232;-68
2021/10/11 07:23:54;;;;;;;13.50;10.47;;;13.90;99.90;;;;;;5071995;28;20201;-68
2021/10/11 07:26:21;;;;;;;12.90;10.53;;;13.30;99.90;;;;;;5072280;28;20205;-68
2021/10/11 07:28:47;;;;;;;13.00;10.33;;;12.70;99.90;;;;;;5071910;28;20570;-68
2021/10/11 07:31:14;;;;;;;15.83;9.80;;;12.20;99.90;;;;;;5071905;28;20323;-69
2021/10/11 07:33:41;;;;;;;23.37;10.90;;;11.70;99.90;;;;;;5071519;28;20244;-68
2021/10/11 07:36:07;;;;;;;14.03;10.90;;;11.30;99.90;;;;;;5072123;28;20213;-68
2021/10/11 07:38:35;;;;;;;17.93;11.80;;;10.90;99.90;;;;;;5072449;28;20269;-67
2021/10/11 07:41:02;;;;;;;18.90;10.57;;;10.50;99.90;;;;;;5071985;28;20639;-67
2021/10/11 07:43:29;;;;;;;17.03;11.43;;;10.20;99.90;;;;;;5071729;28;20205;-67
2021/10/11 07:46:02;;;;;;;15.67;11.77;;;9.90;99.90;;;;;;5072069;28;20209;-67
2021/10/11 07:48:29;;;;;;;14.63;10.57;;;9.60;99.90;;;;;;5072360;28;20213;-67
2021/10/11 07:50:55;;;;;;;15.40;11.80;;;9.60;99.90;;;;;;5072382;28;20229;-66
2021/10/11 07:53:22;;;;;;;16.53;11.63;;;9.60;99.90;;;;;;5071638;28;20704;-67
2021/10/11 07:55:50;;;;;;;16.60;11.57;;;9.70;99.90;;;;;;5071576;28;20209;-67
2021/10/11 07:58:17;;;;;;;14.43;10.63;;;9.80;99.90;;;;;;5071691;28;20205;-67
2021/10/11 08:00:44;;;;;;;17.70;12.90;;;10.10;99.90;;;;;;5071504;28;20228;-68
2021/10/11 08:03:10;;;;;;;18.33;11.60;;;10.40;99.90;;;;;;5071737;28;20213;-67
2021/10/11 08:05:37;;;;;;;17.07;11.37;;;10.70;99.90;;;;;;5071582;28;20216;-67
2021/10/11 08:08:05;;;;;;;19.87;11.70;;;10.90;99.90;;;;;;5071376;28;20204;-69
2021/10/11 08:10:33;;;;;;;17.27;13.20;;;11.10;99.90;;;;;;5071605;28;20233;-69
2021/10/11 08:13:01;;;;;;;16.90;11.40;;;11.30;99.90;;;;;;5072416;28;20213;-67
2021/10/11 08:15:28;;;;;;;14.93;11.13;;;11.50;99.90;;;;;;5075361;28;20201;-66
2021/10/11 08:17:55;;;;;;;18.67;11.53;;;11.60;99.90;;;;;;5075513;28;20205;-60
2021/10/11 08:20:22;;;;;;;15.70;10.70;;;11.40;99.90;;;;;;5075449;28;20228;-59
2021/10/11 08:22:48;;;;;;;17.40;12.03;;;11.50;99.90;;;;;;5075434;28;20572;-66
2021/10/11 08:25:16;;;;;;;11.97;10.57;;;11.80;99.90;;;;;;5075142;28;20207;-63
2021/10/11 08:27:43;;;;;;;15.23;11.83;;;11.80;99.90;;;;;;5074701;28;20722;-62
2021/10/11 08:30:11;;;;;;;16.77;11.37;;;11.70;99.90;;;;;;5075187;28;20205;-62
2021/10/11 08:32:38;;;;;;;16.30;11.23;;;11.80;99.90;;;;;;5075185;28;20227;-62
2021/10/11 08:35:06;;;;;;;15.50;10.70;;;11.60;99.90;;;;;;5074930;28;20227;-62
2021/10/11 08:37:32;;;;;;;15.60;11.23;;;11.40;99.90;;;;;;5075091;28;20211;-63
2021/10/11 08:39:59;;;;;;;15.10;10.07;;;11.60;99.90;;;;;;5074951;28;20207;-62
2021/10/11 08:42:26;;;;;;;13.93;10.43;;;11.50;99.90;;;;;;5074895;28;20205;-62
2021/10/11 08:44:52;;;;;;;15.27;9.97;;;11.80;99.90;;;;;;5075133;28;20209;-62
2021/10/11 08:47:20;;;;;;;14.70;10.83;;;12.30;99.90;;;;;;5075046;28;20201;-63
2021/10/11 08:49:49;;;;;;;13.40;10.57;;;12.90;99.90;;;;;;5074704;28;20589;-63
2021/10/11 08:52:21;;;;;;;17.60;10.33;;;13.30;99.90;;;;;;5074515;28;20673;-62
2021/10/11 08:54:48;;;;;;;17.23;10.53;;;13.70;99.90;;;;;;5074477;28;20315;-63
2021/10/11 08:57:23;;;;;;;12.23;10.03;;;14.30;99.90;;;;;;5074512;28;20205;-63
2021/10/11 08:59:50;;;;;;;15.17;10.03;;;14.50;99.90;;;;;;5074712;28;20200;-63
2021/10/11 09:02:20;;;;;;;13.97;9.90;;;14.50;99.90;;;;;;5074524;28;20717;-63
2021/10/11 09:04:51;;;;;;;15.57;9.73;;;14.70;99.90;;;;;;5074712;28;20312;-63
2021/10/11 09:07:23;;;;;;;16.30;10.40;;;14.90;99.90;;;;;;5074660;28;20629;-63
2021/10/11 09:09:51;;;;;;;15.50;9.67;;;15.00;99.90;;;;;;5074620;28;20229;-62
2021/10/11 09:12:19;;;;;;;13.97;10.27;;;14.80;99.90;;;;;;5074198;28;20229;-62
2021/10/11 09:14:52;;;;;;;19.90;11.07;;;14.90;99.90;;;;;;5074313;28;20225;-62
2021/10/11 09:17:26;;;;;;;16.13;10.33;;;15.00;99.90;;;;;;5074744;28;20205;-63
2021/10/11 09:19:58;;;;;;;17.20;11.10;;;14.80;99.90;;;;;;5074697;28;20295;-65
2021/10/11 09:22:35;;;;;;;16.10;10.43;;;14.00;99.90;;;;;;5074623;28;20204;-62
2021/10/11 09:25:03;;;;;;;14.83;11.27;;;13.00;99.90;;;;;;5073935;28;20197;-63
2021/10/11 09:27:30;;;;;;;15.70;11.30;;;12.60;99.90;;;;;;5073874;28;20209;-63
2021/10/11 09:29:57;;;;;;;16.93;11.30;;;12.80;99.90;;;;;;5073859;28;20254;-63
2021/10/11 09:32:31;;;;;;;15.00;11.67;;;13.10;99.90;;;;;;5074051;28;20274;-62
2021/10/11 09:35:12;;;;;;;13.10;10.37;;;13.00;99.90;;;;;;5074078;28;20263;-62
2021/10/11 09:37:39;;;;;;;14.80;11.40;;;13.20;99.90;;;;;;5073945;28;20228;-62
2021/10/11 09:40:08;;;;;;;15.17;11.90;;;13.50;99.90;;;;;;5073649;28;20216;-63
2021/10/11 09:42:35;;;;;;;15.47;11.23;;;13.80;99.90;;;;;;5074129;28;20256;-62
2021/10/11 09:45:03;;;;;;;18.97;11.23;;;14.10;99.90;;;;;;5073720;28;20235;-62
2021/10/11 09:47:33;;;;;;;14.90;11.07;;;14.20;99.90;;;;;;5073629;28;20216;-62
2021/10/11 09:50:02;;;;;;;19.90;11.33;;;14.40;99.90;;;;;;5073309;28;20208;-63
2021/10/11 09:52:31;;;;;;;15.13;11.07;;;14.40;99.90;;;;;;5073376;28;20255;-63
2021/10/11 09:54:59;;;;;;;12.53;10.33;;;14.50;99.90;;;;;;5073100;28;20313;-63
2021/10/11 09:57:25;;;;;;;14.70;10.90;;;14.70;99.90;;;;;;5071038;28;20438;-63
2021/10/11 09:59:53;;;;;;;14.43;11.00;;;15.00;99.90;;;;;;5073501;28;20585;-66
2021/10/11 10:02:26;;;;;;;12.17;10.17;;;14.90;99.90;;;;;;5073892;28;20286;-69
2021/10/11 10:04:56;;;;;;;16.37;10.63;;;14.80;99.90;;;;;;5073520;28;20205;-68
2021/10/11 10:07:24;;;;;;;17.30;11.10;;;14.60;99.90;;;;;;5073612;28;20213;-67
2021/10/11 10:09:55;;;;;;;16.43;10.97;;;14.70;99.90;;;;;;5073629;28;20633;-66
2021/10/11 10:12:22;;;;;;;14.73;11.30;;;14.90;99.90;;;;;;5073438;28;20216;-66
2021/10/11 10:14:58;;;;;;;13.93;10.57;;;15.10;99.90;;;;;;5073509;28;20233;-69
2021/10/11 10:17:29;;;;;;;15.47;11.23;;;15.30;99.90;;;;;;5073512;28;20232;-68
2021/10/11 10:20:10;;;;;;;14.50;10.73;;;15.40;99.90;;;;;;5073584;28;20205;-67
2021/10/11 10:22:49;;;;;;;13.40;10.33;;;15.50;99.90;;;;;;5073184;28;20299;-68
2021/10/11 10:25:17;;;;;;;14.13;10.37;;;15.60;99.90;;;;;;5073378;28;20219;-70
2021/10/11 10:27:46;;;;;;;15.10;10.63;;;15.70;99.90;;;;;;5073570;28;20216;-67
2021/10/11 10:30:18;;;;;;;16.53;10.17;;;15.80;99.90;;;;;;5073320;28;20205;-67
2021/10/11 10:33:00;;;;;;;13.90;10.40;;;15.90;99.90;;;;;;5073824;28;20255;-69
2021/10/11 10:35:28;;;;;;;17.53;10.03;;;15.90;99.90;;;;;;5073651;28;20236;-68
2021/10/11 10:37:55;;;;;;;15.97;10.63;;;15.90;99.90;;;;;;5072095;28;20232;-64
2021/10/11 10:40:27;;;;;;;12.30;9.83;;;15.90;99.90;;;;;;5073134;28;20241;-64
2021/10/11 10:43:05;;;;;;;11.07;9.87;;;15.70;99.90;;;;;;5073118;28;20212;-63
2021/10/11 10:45:34;;;;;;;16.00;10.53;;;15.60;99.90;;;;;;5072387;28;20209;-63
2021/10/11 10:48:00;;;;;;;17.43;11.47;;;15.80;99.90;;;;;;5072589;28;20565;-64
2021/10/11 10:50:28;;;;;;;14.40;10.80;;;15.80;99.90;;;;;;5073025;28;20235;-63
2021/10/11 10:52:57;;;;;;;14.90;11.20;;;15.90;99.90;;;;;;5072916;28;20640;-64
2021/10/11 10:55:26;;;;;;;13.97;10.93;;;15.90;99.90;;;;;;5072281;28;20221;-67
2021/10/11 10:57:55;;;;;;;12.20;9.73;;;15.80;99.90;;;;;;5072437;28;20201;-68
2021/10/11 11:00:22;;;;;;;14.37;10.70;;;15.70;99.90;;;;;;5072784;28;20267;-68
2021/10/11 11:02:50;;;;;;;17.73;10.63;;;15.80;99.90;;;;;;5073305;28;20482;-66
2021/10/11 11:05:18;;;;;;;14.87;9.90;;;16.00;99.90;;;;;;5057001;28;20210;-64
2021/10/11 11:07:47;;;;;;;14.47;10.37;;;16.20;99.90;;;;;;5052388;28;20696;-63
2021/10/11 11:10:16;;;;;;;14.53;10.90;;;16.30;99.90;;;;;;5052486;28;20216;-66
2021/10/11 11:12:46;;;;;;;13.10;10.53;;;16.50;99.90;;;;;;5052738;28;20263;-63
2021/10/11 11:15:27;;;;;;;15.73;10.97;;;16.60;99.90;;;;;;5051792;28;20225;-63
2021/10/11 11:17:55;;;;;;;16.00;10.57;;;16.60;99.90;;;;;;5052456;28;20259;-64
2021/10/11 11:20:24;;;;;;;15.87;11.07;;;16.60;99.90;;;;;;5052237;28;20649;-64
2021/10/11 11:22:52;;;;;;;17.20;10.73;;;16.50;99.90;;;;;;5051858;28;20279;-64
2021/10/11 11:25:26;;;;;;;17.97;12.50;;;16.50;99.90;;;;;;5051745;28;20573;-67
2021/10/11 11:27:57;;;;;;;17.53;11.43;;;16.50;99.90;;;;;;5051945;28;20692;-66
2021/10/11 11:30:24;;;;;;;16.43;12.17;;;16.40;99.90;;;;;;5051810;28;20229;-64
2021/10/11 11:32:53;;;;;;;18.90;12.07;;;16.50;99.90;;;;;;5051848;28;20209;-64
2021/10/11 11:35:23;;;;;;;14.67;12.30;;;16.40;99.90;;;;;;5052150;28;20233;-68
2021/10/11 11:37:52;;;;;;;18.77;12.87;;;16.50;99.90;;;;;;5051893;28;20206;-65
2021/10/11 11:40:20;;;;;;;16.70;12.43;;;16.60;99.90;;;;;;5052112;28;20226;-64
2021/10/11 11:42:48;;;;;;;16.67;12.20;;;16.80;99.90;;;;;;5052283;28;20205;-67
2021/10/11 11:45:16;;;;;;;17.90;13.03;;;16.70;99.90;;;;;;5052181;28;20266;-65
2021/10/11 11:47:43;;;;;;;18.87;12.87;;;16.50;99.90;;;;;;5051572;28;20212;-60
2021/10/11 11:50:21;;;;;;;18.77;13.07;;;16.30;99.90;;;;;;5050861;28;20691;-59
2021/10/11 11:52:52;;;;;;;17.57;13.00;;;16.10;99.90;;;;;;5051489;28;20201;-59
2021/10/11 11:55:19;;;;;;;18.23;13.27;;;16.00;99.90;;;;;;5051353;28;20264;-59
2021/10/11 11:57:45;;;;;;;19.43;12.73;;;16.00;99.90;;;;;;5051582;28;20241;-59
2021/10/11 12:00:14;;;;;;;19.37;12.90;;;16.10;99.90;;;;;;5051430;28;20205;-59
2021/10/11 12:02:45;;;;;;;18.30;13.70;;;16.10;99.90;;;;;;5051730;28;20263;-59
2021/10/11 12:05:13;;;;;;;16.60;12.37;;;16.40;99.90;;;;;;5051573;28;20634;-59
2021/10/11 12:07:42;;;;;;;16.40;12.47;;;16.70;99.90;;;;;;5051256;28;20551;-60
2021/10/11 12:10:11;;;;;;;16.97;12.97;;;16.90;99.90;;;;;;5051175;28;20237;-60
2021/10/11 12:12:38;;;;;;;20.73;13.10;;;16.80;99.90;;;;;;5051185;28;20213;-60
2021/10/11 12:15:06;;;;;;;17.13;12.90;;;16.70;99.90;;;;;;5050864;28;20225;-60
2021/10/11 12:17:37;;;;;;;18.07;12.70;;;16.80;99.90;;;;;;5051267;28;20209;-61
2021/10/11 12:20:06;;;;;;;18.47;12.57;;;16.90;99.90;;;;;;5051011;28;20278;-61
2021/10/11 12:22:33;;;;;;;18.07;12.40;;;17.00;99.90;;;;;;5050910;28;20206;-61
2021/10/11 12:25:03;;;;;;;18.83;12.47;;;17.10;99.90;;;;;;5050910;28;20197;-61
2021/10/11 12:27:30;;;;;;;14.50;11.60;;;17.20;99.90;;;;;;5050770;28;20202;-61
2021/10/11 12:30:01;;;;;;;17.43;11.07;;;17.30;99.90;;;;;;5050906;28;20569;-61
2021/10/11 12:32:32;;;;;;;12.57;9.93;;;17.30;99.90;;;;;;5110617;22;20230;-59
2021/10/11 12:35:00;;;;;;;16.43;10.73;;;17.20;99.90;;;;;;5090629;28;20224;-58
2021/10/11 12:37:37;;;;;;;14.83;10.60;;;17.20;99.90;;;;;;5090630;28;20205;-59
2021/10/11 12:40:05;;;;;;;12.98;10.38;;;17.40;99.90;;;;;;5090494;28;20208;-56
2021/10/11 12:42:41;;;;;;;17.17;11.37;;;17.50;99.90;;;;;;5090825;28;20240;-56